Time;durP1;ratioP1;P1;durP2;ratioP2;P2;SDS_P1;SDS_P2;PMS_P1;PMS_P2;Temp;Humidity;BMP_temperature;BMP_pressure;BME280_temperature;BME280_humidity;BME280_pressure;Samples;Min_cycle;Max_cycle;Signal;HPM_P1;HPM_P2
2021/08/26 00:00:46;;;;;;;1.40;1.30;;;;;;;15.36;69.01;99918.81;1664727;85;26431;-77
2021/08/26 00:05:54;;;;;;;1.65;1.55;;;;;;;15.34;69.01;99909.77;1664114;85;20956;-77
2021/08/26 00:08:22;;;;;;;1.70;1.60;;;;;;;15.32;69.11;99906.84;1664284;85;20961;-77
2021/08/26 00:10:52;;;;;;;2.65;1.62;;;;;;;15.31;69.28;99899.94;1670037;83;21492;-77
2021/08/26 00:13:18;;;;;;;2.30;2.10;;;;;;;15.32;69.39;99901.17;1664595;84;20956;-77
2021/08/26 00:15:46;;;;;;;1.95;1.50;;;;;;;15.33;69.35;99898.11;1664716;84;20920;-77
2021/08/26 00:18:15;;;;;;;1.62;1.35;;;;;;;15.31;69.48;99898.18;1664768;85;20961;-77
2021/08/26 00:20:47;;;;;;;1.27;1.20;;;;;;;15.32;69.56;99892.52;1664700;85;20928;-77
2021/08/26 00:23:12;;;;;;;2.72;1.70;;;;;;;15.32;69.64;99888.15;1663998;85;20969;-77
2021/08/26 00:25:38;;;;;;;1.67;1.57;;;;;;;15.33;69.63;99883.78;1664579;84;20921;-77
2021/08/26 00:28:11;;;;;;;1.65;1.42;;;;;;;15.33;69.72;99878.58;1664688;85;20913;-77
2021/08/26 00:30:37;;;;;;;1.72;1.60;;;;;;;15.29;69.78;99876.57;1664745;85;20961;-77
2021/08/26 00:33:04;;;;;;;1.80;1.60;;;;;;;15.29;69.93;99873.97;1664451;85;20960;-77
2021/08/26 00:35:31;;;;;;;2.12;1.42;;;;;;;15.29;69.88;99869.21;1664671;85;20937;-77
2021/08/26 00:37:58;;;;;;;1.82;1.72;;;;;;;15.30;70.05;99866.99;1664272;85;20924;-77
2021/08/26 00:40:30;;;;;;;2.40;1.85;;;;;;;15.31;69.96;99868.69;1664377;85;20913;-77
2021/08/26 00:42:59;;;;;;;2.75;1.72;;;;;;;15.29;70.00;99864.00;1671222;83;21968;-77
2021/08/26 00:45:27;;;;;;;2.00;1.90;;;;;;;15.26;70.25;99862.39;1664810;84;20924;-77
2021/08/26 00:47:54;;;;;;;2.30;2.10;;;;;;;15.27;70.29;99868.44;1666331;85;21028;-77
2021/08/26 00:50:26;;;;;;;2.62;1.90;;;;;;;15.26;70.36;99854.58;1664804;84;20916;-77
2021/08/26 00:52:58;;;;;;;2.62;2.00;;;;;;;15.29;70.45;99853.59;1664679;85;20964;-77
2021/08/26 00:55:25;;;;;;;1.85;1.75;;;;;;;15.28;70.48;99851.44;1664517;85;20897;-77
2021/08/26 00:57:54;;;;;;;2.05;1.92;;;;;;;15.28;70.41;99850.14;1664597;85;20921;-77
2021/08/26 01:00:21;;;;;;;2.15;2.05;;;;;;;15.26;70.55;99853.73;1664328;85;20973;-77
2021/08/26 01:03:07;;;;;;;2.40;2.20;;;;;;;15.24;70.65;99850.73;1663147;85;20970;-77
2021/08/26 01:05:56;;;;;;;2.10;1.90;;;;;;;15.24;70.72;99852.05;1660189;85;20957;-77
2021/08/26 01:08:40;;;;;;;2.33;2.12;;;;;;;15.23;70.78;99846.45;1664441;85;20956;-77
2021/08/26 01:11:08;;;;;;;2.52;2.25;;;;;;;15.22;70.86;99847.82;1663421;85;20897;-77
2021/08/26 01:13:38;;;;;;;3.52;2.30;;;;;;;15.24;70.97;99849.89;1664423;85;20889;-77
2021/08/26 01:16:15;;;;;;;2.80;2.60;;;;;;;15.26;71.11;99847.22;1653071;84;20940;-77
2021/08/26 01:18:44;;;;;;;;;;;;;;;15.27;71.09;99838.48;1661197;85;20960;-77
2021/08/26 01:21:17;;;;;;;2.58;2.37;;;;;;;15.27;71.80;99831.52;1638821;86;20343;-77
2021/08/26 01:23:50;;;;;;;2.72;1.98;;;;;;;15.31;71.29;99833.52;1609914;86;21037;-77
2021/08/26 01:26:32;;;;;;;2.22;2.12;;;;;;;15.29;71.27;99828.38;1675761;84;20889;-77
2021/08/26 01:29:01;;;;;;;2.62;2.42;;;;;;;15.30;71.37;99827.92;1641868;86;21009;-77
2021/08/26 01:31:30;;;;;;;4.08;2.92;;;;;;;15.28;71.36;99827.16;1675725;84;21326;-77
2021/08/26 01:33:58;;;;;;;3.85;2.58;;;;;;;15.29;71.42;99826.23;1674445;84;21024;-77
2021/08/26 01:36:28;;;;;;;2.95;2.75;;;;;;;15.29;71.52;99821.87;1636959;86;20947;-77
2021/08/26 01:39:01;;;;;;;5.05;2.62;;;;;;;15.31;71.55;99825.70;1669851;84;20952;-77
2021/08/26 01:41:48;;;;;;;2.77;2.58;;;;;;;15.30;71.61;99823.56;1686038;83;20884;-77
2021/08/26 01:44:27;;;;;;;5.45;2.65;;;;;;;15.28;71.48;99821.48;1667607;84;21336;-77
2021/08/26 01:46:58;;;;;;;2.70;2.50;;;;;;;15.24;71.52;99820.78;1632819;86;21522;-77
2021/08/26 01:49:32;;;;;;;3.62;2.98;;;;;;;15.21;71.73;99824.84;1668969;84;21281;-77
2021/08/26 01:51:58;;;;;;;3.42;3.17;;;;;;;15.17;71.75;99812.88;1668004;84;21124;-77
2021/08/26 01:54:24;;;;;;;2.87;2.58;;;;;;;15.15;71.87;99814.71;1667918;84;21328;-77
2021/08/26 01:56:51;;;;;;;5.40;3.40;;;;;;;15.17;71.85;99809.43;1667685;84;21099;-77
2021/08/26 01:59:18;;;;;;;5.55;3.10;;;;;;;15.15;71.97;99808.20;1668019;84;21070;-77
2021/08/26 02:01:50;;;;;;;5.85;3.27;;;;;;;15.14;72.08;99800.00;1667680;84;21547;-77
2021/08/26 02:04:16;;;;;;;4.53;3.90;;;;;;;15.14;72.10;99804.37;1666628;84;21306;-77
2021/08/26 02:06:43;;;;;;;7.55;3.70;;;;;;;15.14;72.06;99790.05;1667753;84;21043;-77
2021/08/26 02:09:17;;;;;;;4.80;3.85;;;;;;;15.12;72.13;99798.39;1652816;84;21063;-77
2021/08/26 02:11:44;;;;;;;6.12;3.45;;;;;;;15.10;72.21;99788.05;1668576;84;21346;-77
2021/08/26 02:14:10;;;;;;;4.05;3.65;;;;;;;15.09;72.29;99794.63;1667424;84;21055;-77
2021/08/26 02:16:36;;;;;;;4.28;3.87;;;;;;;15.08;72.26;99793.78;1653817;84;21066;-77
2021/08/26 02:19:03;;;;;;;4.25;3.80;;;;;;;15.08;72.47;99793.78;1667909;84;21099;-77
2021/08/26 02:21:29;;;;;;;4.65;3.62;;;;;;;15.09;72.35;99794.63;1667720;84;21574;-77
2021/08/26 02:23:56;;;;;;;4.03;3.72;;;;;;;15.08;72.50;99787.73;1667234;84;22209;-77
2021/08/26 02:26:23;;;;;;;4.50;4.08;;;;;;;15.06;72.43;99790.90;1667821;84;21559;-77
2021/08/26 02:28:55;;;;;;;4.30;4.00;;;;;;;15.03;72.55;99790.59;1669537;84;20956;-77
2021/08/26 02:31:22;;;;;;;4.47;4.08;;;;;;;15.03;72.69;99789.74;1670224;84;20936;-77
2021/08/26 02:33:48;;;;;;;4.20;3.90;;;;;;;15.05;72.85;99783.55;1669916;84;20880;-77
2021/08/26 02:36:14;;;;;;;5.37;4.20;;;;;;;15.08;72.79;99785.97;1679295;82;20916;-77
2021/08/26 02:38:41;;;;;;;7.08;4.37;;;;;;;15.08;72.87;99785.97;1668822;84;20912;-77
2021/08/26 02:41:13;;;;;;;5.40;4.17;;;;;;;15.10;72.94;99783.30;1680950;82;409304;-77
2021/08/26 02:43:39;;;;;;;6.30;3.87;;;;;;;15.06;72.82;99778.72;1670414;84;20917;-77
2021/08/26 02:46:06;;;;;;;4.65;4.30;;;;;;;15.00;72.90;99779.02;1668430;84;20897;-77
2021/08/26 02:48:32;;;;;;;4.40;4.05;;;;;;;15.00;73.23;99780.77;1663699;84;21334;-77
2021/08/26 02:50:58;;;;;;;5.47;3.87;;;;;;;15.00;73.17;99773.81;1670196;84;20953;-77
2021/08/26 02:53:25;;;;;;;4.40;4.00;;;;;;;14.97;73.17;99775.25;1670214;84;20905;-77
2021/08/26 02:55:51;;;;;;;5.67;4.05;;;;;;;14.94;73.25;99776.70;1670256;84;20918;-77
2021/08/26 02:58:17;;;;;;;4.25;3.85;;;;;;;14.91;73.39;99780.75;1669980;84;20952;-77
2021/08/26 03:00:44;;;;;;;5.07;4.40;;;;;;;14.88;73.33;99778.29;1670286;84;20948;-77
2021/08/26 03:03:11;;;;;;;4.08;3.67;;;;;;;14.85;73.53;99782.34;1670155;84;21082;-77
2021/08/26 03:05:38;;;;;;;5.12;4.40;;;;;;;14.84;73.52;99780.65;1670324;84;20916;-77
2021/08/26 03:08:05;;;;;;;4.83;4.33;;;;;;;14.83;73.65;99778.96;1661466;84;20900;-77
2021/08/26 03:10:32;;;;;;;6.30;4.05;;;;;;;14.81;73.65;99780.33;1661901;84;21047;-77
2021/08/26 03:12:58;;;;;;;9.60;4.40;;;;;;;14.80;73.62;99785.16;1668282;84;21114;-77
2021/08/26 03:15:25;;;;;;;6.75;3.85;;;;;;;14.81;73.85;99783.39;1668218;84;21088;-77
2021/08/26 03:17:54;;;;;;;8.08;4.10;;;;;;;14.81;73.73;99777.73;1667308;84;21397;-77
2021/08/26 03:20:21;;;;;;;4.37;3.98;;;;;;;14.80;73.90;99780.41;1659380;84;21088;-77
2021/08/26 03:22:48;;;;;;;5.65;3.45;;;;;;;14.78;73.88;99782.23;1663982;84;21052;-77
2021/08/26 03:25:15;;;;;;;4.67;3.62;;;;;;;14.76;74.00;99782.77;1664607;84;21114;-77
2021/08/26 03:27:42;;;;;;;3.65;3.30;;;;;;;14.79;74.09;99787.37;1659567;84;21342;-77
2021/08/26 03:30:10;;;;;;;4.08;3.77;;;;;;;14.81;74.14;99791.20;1662276;84;21338;-77
2021/08/26 03:32:45;;;;;;;4.92;4.20;;;;;;;14.81;74.14;99790.75;1668715;84;21121;-77
2021/08/26 03:35:11;;;;;;;5.35;4.20;;;;;;;14.80;74.04;99783.01;1666279;84;21080;-77
2021/08/26 03:37:38;;;;;;;9.05;4.15;;;;;;;14.79;74.17;99787.37;1666030;84;21163;-77
2021/08/26 03:40:07;;;;;;;6.12;4.33;;;;;;;14.79;74.27;99791.27;1666993;84;21558;-77
2021/08/26 03:42:33;;;;;;;5.65;4.17;;;;;;;14.69;74.33;99765.74;1665432;84;21075;-77
2021/08/26 03:45:00;;;;;;;6.62;4.22;;;;;;;14.81;74.41;99789.90;1667573;84;21543;-77
2021/08/26 03:47:26;;;;;;;4.62;3.90;;;;;;;14.82;74.44;99791.59;1666333;84;21007;-77
2021/08/26 03:49:53;;;;;;;7.35;4.25;;;;;;;14.82;74.45;99787.23;1667459;84;26802;-77
2021/08/26 03:52:19;;;;;;;5.78;4.30;;;;;;;14.80;74.43;99786.91;1667963;84;21097;-77
2021/08/26 03:54:46;;;;;;;4.58;4.17;;;;;;;14.77;74.51;99787.89;1671821;84;20976;-77
2021/08/26 03:57:12;;;;;;;6.70;4.30;;;;;;;14.77;74.61;99790.50;1676165;83;22444;-77
2021/08/26 03:59:38;;;;;;;5.85;4.50;;;;;;;14.79;74.67;99790.42;1664879;84;21080;-77
2021/08/26 04:02:05;;;;;;;6.33;4.40;;;;;;;14.79;74.71;99792.58;1663316;84;21567;-77
2021/08/26 04:04:31;;;;;;;5.80;4.15;;;;;;;14.79;74.61;99785.22;1666039;84;21036;-77
2021/08/26 04:06:57;;;;;;;5.33;4.58;;;;;;;14.77;74.70;99787.89;1665471;84;21088;-77
2021/08/26 04:09:23;;;;;;;7.40;5.00;;;;;;;14.75;74.72;99788.42;1664267;84;21125;-77
2021/08/26 04:11:50;;;;;;;6.03;4.83;;;;;;;14.76;74.89;99786.66;1665168;84;21156;-77
2021/08/26 04:14:16;;;;;;;5.15;4.60;;;;;;;14.78;74.93;99782.23;1667716;84;20948;-77
2021/08/26 04:16:43;;;;;;;6.50;4.55;;;;;;;14.78;74.84;99779.63;1665379;84;21065;-77
2021/08/26 04:19:09;;;;;;;5.85;5.20;;;;;;;14.77;74.98;99781.84;1673673;84;21498;-77
2021/08/26 04:21:35;;;;;;;5.37;4.33;;;;;;;14.76;74.98;99774.50;1666564;84;21051;-77
2021/08/26 04:24:02;;;;;;;5.72;5.10;;;;;;;14.77;75.01;99771.44;1665083;84;21059;-77
2021/08/26 04:26:28;;;;;;;5.08;4.28;;;;;;;14.77;75.13;99770.98;1665642;84;21448;-77
2021/08/26 04:28:55;;;;;;;5.90;4.28;;;;;;;14.79;75.10;99770.45;1665507;84;21041;-77
2021/08/26 04:31:22;;;;;;;6.60;5.28;;;;;;;14.78;75.13;99767.92;1662737;84;21099;-77
2021/08/26 04:33:48;;;;;;;7.37;5.17;;;;;;;14.79;75.18;99769.15;1664320;84;21023;-77
2021/08/26 04:36:14;;;;;;;5.30;4.80;;;;;;;14.78;75.21;99765.31;1666649;84;21535;-77
2021/08/26 04:38:40;;;;;;;6.75;4.42;;;;;;;14.78;75.25;99763.56;1664770;84;21130;-77
2021/08/26 04:41:09;;;;;;;8.53;4.62;;;;;;;14.79;75.29;99767.85;1665616;84;21531;-77
2021/08/26 04:43:35;;;;;;;5.25;4.65;;;;;;;14.82;75.33;99765.56;1662743;84;21045;-76
2021/08/26 04:46:01;;;;;;;6.87;4.62;;;;;;;14.83;75.37;99767.25;1666315;84;21051;-77
2021/08/26 04:48:27;;;;;;;5.97;4.40;;;;;;;14.84;75.40;99773.69;1663046;84;21092;-77
2021/08/26 04:50:54;;;;;;;9.15;4.33;;;;;;;14.84;75.50;99771.08;1663020;84;21003;-77
2021/08/26 04:53:23;;;;;;;5.05;4.60;;;;;;;14.85;75.35;99774.07;1660545;84;21063;-77
2021/08/26 04:55:49;;;;;;;5.12;4.15;;;;;;;14.83;75.43;99764.64;1658703;84;21095;-78
2021/08/26 04:58:16;;;;;;;5.65;4.90;;;;;;;14.82;75.47;99769.01;1665033;84;21488;-78
2021/08/26 05:00:43;;;;;;;5.65;4.95;;;;;;;14.83;75.67;99769.85;1663493;84;21024;-78
2021/08/26 05:03:09;;;;;;;5.60;5.12;;;;;;;14.87;75.69;99770.94;1663898;84;27027;-78
2021/08/26 05:05:39;;;;;;;5.67;4.67;;;;;;;14.88;75.67;99770.02;1663908;84;21063;-78
2021/08/26 05:08:05;;;;;;;9.45;5.35;;;;;;;14.90;75.68;99766.89;1667306;84;21119;-77
2021/08/26 05:10:32;;;;;;;8.68;5.47;;;;;;;14.93;75.79;99764.60;1667299;84;20952;-77
2021/08/26 05:13:01;;;;;;;5.55;5.05;;;;;;;14.96;75.85;99759.25;1667516;84;21053;-77
2021/08/26 05:15:28;;;;;;;5.30;4.80;;;;;;;15.02;75.89;99756.81;1665879;84;21032;-77
2021/08/26 05:17:54;;;;;;;5.62;4.92;;;;;;;15.02;75.79;99750.30;1665698;84;22352;-77
2021/08/26 05:20:24;;;;;;;7.97;5.62;;;;;;;15.05;75.89;99760.58;1670125;84;21095;-77
2021/08/26 05:22:50;;;;;;;6.62;5.22;;;;;;;15.06;75.90;99763.56;1664919;84;21055;-77
2021/08/26 05:25:17;;;;;;;6.05;5.25;;;;;;;15.11;76.01;99758.48;1664899;84;20976;-77
2021/08/26 05:27:43;;;;;;;6.30;5.55;;;;;;;15.15;76.06;99757.42;1659097;85;21009;-77
2021/08/26 05:30:10;;;;;;;7.28;5.37;;;;;;;15.28;76.10;99764.64;1662688;85;20972;-77
2021/08/26 05:32:36;;;;;;;5.80;5.10;;;;;;;15.36;76.08;99766.41;1663560;84;26628;-77
2021/08/26 05:35:02;;;;;;;8.63;5.22;;;;;;;15.45;76.18;99772.02;1671074;83;21477;-77
2021/08/26 05:37:29;;;;;;;5.00;4.50;;;;;;;15.53;76.15;99767.73;1702451;83;21040;-77
2021/08/26 05:39:57;;;;;;;7.37;4.75;;;;;;;15.60;76.09;99766.50;1679132;83;21583;-77
2021/08/26 05:42:23;;;;;;;7.72;5.15;;;;;;;15.65;76.10;99778.00;1690101;83;20989;-77
2021/08/26 05:44:49;;;;;;;6.87;4.87;;;;;;;15.69;76.13;99773.86;1693382;83;21615;-77
2021/08/26 05:47:18;;;;;;;5.22;4.47;;;;;;;15.67;76.13;99770.49;1687052;83;21524;-77
2021/08/26 05:49:44;;;;;;;6.40;4.58;;;;;;;15.68;76.07;99774.78;1692852;83;21055;-77
2021/08/26 05:52:11;;;;;;;7.00;4.65;;;;;;;15.67;76.15;99775.70;1690400;83;21515;-77
2021/08/26 05:54:38;;;;;;;4.65;4.15;;;;;;;15.69;76.21;99782.98;1688850;83;27918;-77
2021/08/26 05:57:04;;;;;;;4.22;3.85;;;;;;;15.70;76.15;99776.85;1693872;83;21083;-77
2021/08/26 05:59:31;;;;;;;6.47;4.20;;;;;;;15.72;76.19;99772.41;1692985;83;21532;-77
2021/08/26 06:01:57;;;;;;;8.95;4.42;;;;;;;15.89;76.55;99770.25;1708522;83;21353;-77
2021/08/26 06:04:23;;;;;;;5.83;4.08;;;;;;;16.08;76.42;99772.30;1701781;83;21080;-77
2021/08/26 06:06:50;;;;;;;12.37;4.50;;;;;;;16.17;76.26;99765.73;1693023;83;21502;-77
2021/08/26 06:09:17;;;;;;;;;;;;;;;16.17;76.22;99773.55;1702590;83;21507;-77
2021/08/26 06:11:43;;;;;;;4.92;3.95;;;;;;;16.22;76.50;99767.63;1693956;83;20604;-77
2021/08/26 06:14:11;;;;;;;5.78;3.85;;;;;;;16.24;76.27;99774.91;1699152;83;21603;-77
2021/08/26 06:16:49;;;;;;;5.55;4.25;;;;;;;16.24;76.32;99777.52;1694817;84;20957;-77
2021/08/26 06:19:15;;;;;;;4.85;4.22;;;;;;;16.27;76.31;99776.52;1695106;84;20925;-77
2021/08/26 06:21:42;;;;;;;6.37;4.40;;;;;;;16.30;76.44;99770.68;1694824;84;21822;-77
2021/08/26 06:24:10;;;;;;;7.67;4.25;;;;;;;16.42;76.51;99777.86;1694622;84;21519;-77
2021/08/26 06:26:37;;;;;;;9.48;4.45;;;;;;;16.48;76.35;99772.31;1691087;84;21075;-77
2021/08/26 06:29:04;;;;;;;4.50;3.62;;;;;;;16.54;76.48;99776.36;1690181;84;21062;-77
2021/08/26 06:31:32;;;;;;;7.03;4.12;;;;;;;16.64;76.49;99779.29;1689433;84;21504;-77
2021/08/26 06:33:58;;;;;;;7.55;4.05;;;;;;;16.66;76.34;99782.69;1688740;84;21135;-77
2021/08/26 06:36:28;;;;;;;6.85;3.72;;;;;;;16.62;76.32;99792.45;1689840;84;21472;-77
2021/08/26 06:38:54;;;;;;;6.67;3.80;;;;;;;16.52;76.18;99792.11;1689687;84;21175;-77
2021/08/26 06:41:20;;;;;;;4.65;3.90;;;;;;;16.41;76.32;99792.29;1690366;84;21468;-77
2021/08/26 06:43:46;;;;;;;5.00;3.45;;;;;;;16.38;76.46;99789.84;1695553;81;21068;-77
2021/08/26 06:46:13;;;;;;;3.27;2.85;;;;;;;16.38;76.46;99789.84;1690193;83;21891;-77
2021/08/26 07:04:31;;;;;;;1.20;1.10;;;;;;;15.66;76.68;99787.51;1693981;83;21556;-78
2021/08/26 07:06:57;;;;;;;2.35;1.45;;;;;;;15.62;76.65;99784.67;1685187;84;21504;-78
2021/08/26 07:09:24;;;;;;;3.77;1.42;;;;;;;15.60;76.80;99781.33;1690565;84;21586;-78
2021/08/26 07:11:50;;;;;;;1.32;1.10;;;;;;;15.62;76.79;99783.37;1686945;84;24771;-78
2021/08/26 07:14:17;;;;;;;1.47;1.25;;;;;;;15.66;76.85;99779.23;1690406;84;21119;-78
2021/08/26 07:16:43;;;;;;;1.75;1.20;;;;;;;15.70;76.79;99782.06;1690275;84;21086;-78
2021/08/26 07:19:10;;;;;;;2.47;0.90;;;;;;;15.72;76.77;99780.23;1690866;84;21445;-78
2021/08/26 07:21:36;;;;;;;2.60;1.02;;;;;;;15.79;76.86;99785.52;1690376;84;21123;-78
2021/08/26 07:24:06;;;;;;;3.10;1.07;;;;;;;15.94;76.82;99776.53;1690074;84;21444;-78
2021/08/26 07:26:33;;;;;;;2.15;1.05;;;;;;;16.18;76.97;99786.52;1693207;83;21110;-78
2021/08/26 07:28:59;;;;;;;1.10;0.98;;;;;;;16.59;77.21;99780.87;1700774;83;21531;-78
2021/08/26 07:31:28;;;;;;;1.92;0.95;;;;;;;17.04;77.14;99786.66;1700638;83;21127;-78
2021/08/26 07:33:54;;;;;;;2.60;0.80;;;;;;;17.40;76.94;99782.87;1699888;83;21531;-78
2021/08/26 07:36:20;;;;;;;0.65;0.55;;;;;;;17.69;76.81;99789.03;1700999;83;21071;-78
2021/08/26 07:38:47;;;;;;;1.12;0.70;;;;;;;17.92;76.60;99787.22;1700541;83;21087;-78
2021/08/26 07:41:13;;;;;;;1.80;0.60;;;;;;;18.05;76.47;99794.72;1702297;83;21024;-78
2021/08/26 07:43:40;;;;;;;;;;;;;;;18.19;76.38;99796.04;1693350;82;20992;-78
2021/08/26 07:46:08;;;;;;;1.07;0.70;;;;;;;18.26;76.18;99797.78;1696692;82;20565;-78
2021/08/26 07:48:35;;;;;;;3.57;1.00;;;;;;;18.38;76.41;99794.89;1694568;83;21059;-78
2021/08/26 07:51:04;;;;;;;1.32;0.85;;;;;;;18.48;76.32;99801.25;1697757;83;21359;-78
2021/08/26 07:53:32;;;;;;;2.22;1.00;;;;;;;18.53;76.29;99796.10;1698930;83;21499;-78
2021/08/26 07:56:00;;;;;;;1.02;0.80;;;;;;;18.61;76.27;99791.73;1702227;83;21503;-78
2021/08/26 07:58:30;;;;;;;1.45;1.10;;;;;;;18.74;76.40;99796.55;1702301;83;20968;-78
2021/08/26 08:00:58;;;;;;;2.10;1.25;;;;;;;18.83;76.27;99787.27;1697060;83;21421;-78
2021/08/26 08:03:25;;;;;;;1.72;1.45;;;;;;;18.88;76.21;99788.30;1701198;82;21347;-77
2021/08/26 08:05:52;;;;;;;1.30;1.20;;;;;;;18.92;76.27;99788.00;1702348;83;21413;-77
2021/08/26 08:08:18;;;;;;;2.33;1.90;;;;;;;18.92;76.12;99778.84;1702268;82;21399;-77
2021/08/26 08:10:45;;;;;;;1.57;1.20;;;;;;;18.93;76.19;99780.98;1711264;82;20920;-77
2021/08/26 08:13:11;;;;;;;2.05;1.80;;;;;;;19.09;76.46;99782.53;1695544;82;29078;-77
2021/08/26 08:15:38;;;;;;;2.83;1.60;;;;;;;19.29;76.33;99782.52;1695395;82;20961;-77
2021/08/26 08:18:04;;;;;;;1.40;1.30;;;;;;;19.37;76.21;99775.00;1700318;83;20940;-77
2021/08/26 08:20:31;;;;;;;;;;;;;;;19.41;76.03;99775.64;1701484;82;20969;-77
2021/08/26 08:22:59;;;;;;;5.40;1.60;;;;;;;19.36;75.84;99779.87;1700165;83;20298;-78
2021/08/26 08:25:25;;;;;;;3.08;1.80;;;;;;;19.59;76.43;99782.33;1693507;82;20972;-79
2021/08/26 08:27:51;;;;;;;3.02;2.00;;;;;;;19.83;76.10;99783.28;1690722;83;20890;-79
2021/08/26 08:30:18;;;;;;;2.45;1.82;;;;;;;19.99;76.21;99788.80;1693882;84;21332;-79
2021/08/26 08:32:44;;;;;;;4.08;1.87;;;;;;;19.95;75.98;99778.98;1693515;84;20961;-79
2021/08/26 08:35:10;;;;;;;2.70;1.92;;;;;;;19.99;76.10;99787.02;1688879;83;20870;-79
2021/08/26 08:37:37;;;;;;;3.72;1.82;;;;;;;20.07;75.95;99778.63;1690866;83;20937;-79
2021/08/26 08:40:04;;;;;;;2.00;1.70;;;;;;;20.09;75.99;99781.98;1688413;84;20965;-79
2021/08/26 08:42:32;;;;;;;6.05;1.98;;;;;;;20.16;76.08;99772.28;1689772;83;20983;-79
2021/08/26 08:45:00;;;;;;;5.53;1.80;;;;;;;20.30;76.06;99778.33;1686845;83;20948;-77
2021/08/26 08:47:36;;;;;;;2.58;1.95;;;;;;;20.37;75.79;99778.27;1692378;83;21517;-77
2021/08/26 08:50:05;;;;;;;3.42;1.72;;;;;;;20.95;75.68;99782.03;1683584;83;20961;-78
2021/08/26 08:52:39;;;;;;;3.42;2.05;;;;;;;21.40;75.60;99788.36;1686822;83;20969;-79
2021/08/26 08:55:11;;;;;;;2.17;1.75;;;;;;;21.24;75.71;99785.21;1680941;83;20997;-78
2021/08/26 08:57:46;;;;;;;2.40;1.72;;;;;;;21.11;75.38;99783.45;1688320;83;20981;-78
2021/08/26 09:00:18;;;;;;;2.27;1.55;;;;;;;20.86;75.49;99787.95;1690052;83;20909;-78
2021/08/26 09:02:48;;;;;;;2.20;1.90;;;;;;;20.62;75.47;99790.09;1691498;84;20913;-78
2021/08/26 09:05:15;;;;;;;2.80;1.62;;;;;;;20.36;75.54;99789.72;1693432;83;20921;-79
2021/08/26 09:07:42;;;;;;;2.00;1.60;;;;;;;20.30;75.44;99785.73;1696974;83;20905;-82
2021/08/26 09:10:10;;;;;;;2.42;1.42;;;;;;;20.31;75.37;99788.73;1694354;83;20965;-81
2021/08/26 09:12:45;;;;;;;2.37;1.82;;;;;;;20.35;75.39;99786.73;1698254;83;20886;-83
2021/08/26 09:15:26;;;;;;;2.72;1.75;;;;;;;20.29;75.14;99789.78;1703159;83;20917;-84
2021/08/26 09:18:16;;;;;;;2.35;1.60;;;;;;;20.18;75.03;99790.55;1700549;83;21780;-81
2021/08/26 09:20:58;;;;;;;1.80;1.57;;;;;;;20.10;74.98;99798.95;1691769;83;20929;-83
2021/08/26 09:23:48;;;;;;;3.33;1.92;;;;;;;19.99;74.82;99794.89;1691822;83;21412;-78
2021/08/26 09:26:18;;;;;;;1.70;1.60;;;;;;;19.93;74.86;99788.75;1692074;84;20913;-78
2021/08/26 09:28:47;;;;;;;3.08;1.62;;;;;;;19.87;74.70;99786.54;1698732;83;21389;-81
2021/08/26 09:31:23;;;;;;;2.67;1.70;;;;;;;19.84;74.62;99783.65;1703927;82;21556;-81
2021/08/26 09:34:00;;;;;;;2.43;1.50;;;;;;;19.80;74.48;99782.17;1697467;82;20912;-82
2021/08/26 09:36:35;;;;;;;2.17;1.72;;;;;;;19.72;74.30;99784.98;1700488;82;20952;-82
2021/08/26 09:39:13;;;;;;;1.70;1.55;;;;;;;19.55;74.25;99784.78;1702402;82;20885;-82
2021/08/26 09:41:45;;;;;;;2.37;1.60;;;;;;;19.52;74.30;99781.52;1701896;82;20941;-82
2021/08/26 09:44:15;;;;;;;2.87;1.90;;;;;;;19.35;74.07;99782.13;1699367;83;20920;-82
2021/08/26 09:46:43;;;;;;;2.77;1.42;;;;;;;19.30;74.20;99775.03;1703181;82;20925;-82
2021/08/26 09:49:16;;;;;;;1.52;1.42;;;;;;;19.30;74.13;99770.26;1701888;83;21003;-82
2021/08/26 09:51:44;;;;;;;2.90;1.80;;;;;;;19.23;74.10;99766.39;1699642;83;21090;-82
2021/08/26 09:54:35;;;;;;;2.12;1.80;;;;;;;19.25;74.15;99771.03;1704716;82;21350;-82
2021/08/26 09:57:24;;;;;;;3.47;1.50;;;;;;;19.21;74.01;99769.58;1686475;83;21096;-81
2021/08/26 10:00:03;;;;;;;2.87;1.62;;;;;;;19.26;74.08;99770.09;1694843;82;20944;-81
2021/08/26 10:02:33;;;;;;;1.87;1.40;;;;;;;19.31;73.91;99771.94;1698622;82;20997;-81
2021/08/26 10:05:00;;;;;;;1.65;1.20;;;;;;;19.38;73.83;99764.88;1701246;82;20984;-81
2021/08/26 10:07:28;;;;;;;1.57;1.30;;;;;;;19.45;73.82;99770.56;1711066;82;21263;-81
2021/08/26 10:09:55;;;;;;;4.97;1.10;;;;;;;19.58;73.70;99775.41;1693306;83;20984;-81
2021/08/26 10:12:21;;;;;;;3.42;0.72;;;;;;;19.57;73.42;99780.27;1700764;82;20941;-81
2021/08/26 10:14:52;;;;;;;4.08;0.68;;;;;;;19.25;72.78;99807.72;1709293;82;21375;-82
2021/08/26 10:17:19;;;;;;;3.45;0.95;;;;;;;18.83;72.95;99831.34;1712844;82;21430;-82
2021/08/26 10:19:48;;;;;;;2.83;0.55;;;;;;;18.11;73.13;99815.28;1677355;84;20998;-82
2021/08/26 10:22:14;;;;;;;1.12;0.70;;;;;;;17.42;73.46;99821.05;1655407;84;21755;-82
2021/08/26 10:24:41;;;;;;;3.00;0.60;;;;;;;16.86;73.64;99817.23;1681904;84;20964;-82
2021/08/26 10:27:15;;;;;;;1.85;0.62;;;;;;;16.44;74.13;99821.67;1654621;84;21341;-82
2021/08/26 10:29:45;;;;;;;2.30;0.62;;;;;;;16.21;74.34;99820.27;1673910;84;21008;-82
2021/08/26 10:32:16;;;;;;;0.75;0.55;;;;;;;16.08;74.29;99818.39;1680907;84;20956;-82
2021/08/26 10:35:10;;;;;;;0.72;0.33;;;;;;;15.91;74.24;99824.92;1691045;84;20902;-80
2021/08/26 10:37:54;;;;;;;1.05;0.20;;;;;;;15.83;74.31;99834.43;1621720;84;20929;-80
2021/08/26 10:40:36;;;;;;;1.67;0.30;;;;;;;15.79;74.45;99828.98;1669464;84;20991;-80
2021/08/26 10:43:06;;;;;;;0.08;0.08;;;;;;;15.71;74.36;99831.13;1671247;84;20916;-80
2021/08/26 10:45:49;;;;;;;0.40;0.30;;;;;;;15.77;74.65;99829.06;1664279;84;21325;-80
2021/08/26 10:48:25;;;;;;;0.13;0.13;;;;;;;15.86;74.57;99838.19;1673441;84;20981;-80
2021/08/26 10:51:05;;;;;;;0.72;0.25;;;;;;;15.97;74.46;99840.27;1677115;84;20931;-80
2021/08/26 10:53:35;;;;;;;3.08;0.30;;;;;;;16.06;74.61;99835.42;1667452;84;20956;-80
2021/08/26 10:56:29;;;;;;;0.33;0.10;;;;;;;16.07;74.30;99835.80;1664722;84;21400;-80
2021/08/26 10:58:58;;;;;;;0.98;0.10;;;;;;;16.05;74.24;99839.41;1671086;84;21416;-80
2021/08/26 11:01:38;;;;;;;0.20;0.10;;;;;;;15.91;73.96;99848.39;1704531;82;20937;-80
2021/08/26 11:04:20;;;;;;;0.20;0.10;;;;;;;15.83;74.16;99844.41;1699849;82;20969;-80
2021/08/26 11:06:48;;;;;;;0.10;0.10;;;;;;;15.89;74.34;99845.86;1693937;83;20897;-80
2021/08/26 11:09:20;;;;;;;0.33;0.10;;;;;;;16.00;74.39;99842.72;1703130;82;20960;-80
2021/08/26 11:11:49;;;;;;;0.20;0.10;;;;;;;16.12;74.31;99840.30;1697791;82;20976;-80
2021/08/26 11:14:20;;;;;;;0.70;0.10;;;;;;;16.32;74.28;99847.56;1705538;82;20861;-80
2021/08/26 11:17:06;;;;;;;0.47;0.20;;;;;;;16.51;74.39;99850.44;1712605;82;20984;-79
2021/08/26 11:19:37;;;;;;;0.25;0.25;;;;;;;16.64;74.26;99844.55;1683318;82;20933;-79
2021/08/26 11:22:08;;;;;;;0.10;0.03;;;;;;;16.81;74.28;99845.83;1679298;83;21593;-79
2021/08/26 11:24:47;;;;;;;0.30;0.10;;;;;;;16.90;74.00;99842.72;1697380;82;20956;-79
2021/08/26 11:27:24;;;;;;;0.43;0.10;;;;;;;17.04;74.35;99848.04;1642945;81;5001570;-79
2021/08/26 11:30:21;;;;;;;0.17;0.10;;;;;;;17.27;74.26;99847.20;1715276;82;21749;-79
2021/08/26 11:32:48;;;;;;;0.10;0.10;;;;;;;17.47;74.21;99853.47;1716013;83;21529;-79
2021/08/26 11:35:17;;;;;;;1.55;0.10;;;;;;;17.58;73.94;99847.17;1708853;82;20903;-79
2021/08/26 11:37:44;;;;;;;0.25;0.10;;;;;;;17.68;73.98;99856.17;1698594;83;20955;-79
2021/08/26 11:40:15;;;;;;;0.57;0.10;;;;;;;17.69;73.72;99857.02;1714612;82;21354;-79
2021/08/26 11:42:46;;;;;;;3.87;0.20;;;;;;;17.63;73.60;99858.67;1714539;82;21382;-79
2021/08/26 11:45:26;;;;;;;0.10;0.03;;;;;;;17.64;73.68;99861.66;1713679;83;20918;-79
2021/08/26 11:47:58;;;;;;;1.15;0.10;;;;;;;17.69;73.66;99861.78;1716619;83;21068;-79
2021/08/26 11:50:31;;;;;;;0.13;0.10;;;;;;;17.75;73.69;99871.89;1715205;83;21119;-79
2021/08/26 11:53:12;;;;;;;1.32;0.30;;;;;;;17.79;73.58;99872.56;1716983;82;21311;-79
2021/08/26 11:55:44;;;;;;;1.00;0.20;;;;;;;17.77;73.41;99869.19;1718127;82;20953;-79
2021/08/26 11:58:20;;;;;;;1.47;0.25;;;;;;;17.82;73.48;99873.69;1717356;82;21399;-79
2021/08/26 12:00:49;;;;;;;0.00;0.00;;;;;;;17.86;73.51;99870.81;1714406;82;21293;-79
2021/08/26 12:03:22;;;;;;;0.57;0.05;;;;;;;17.92;73.41;99875.31;1715952;82;20929;-79